Terminal Aerodrome Forecast
Issued by NWS

Home | Current Version | Previous Version | Text Only | Print | Product List | Glossary On
Versions: 1 2 3 4 5 6 7 8 9 10 11 12
000
FTUS45 KVEF 171700
TAFVGT
TAF
KVGT 171729Z 1718/1818 VRB06KT P6SM FEW100 SCT250
     FM172000 13007KT P6SM SCT080 BKN150
     FM180600 VRB05KT P6SM SCT150=

USA.gov is the U.S. government's official web portal to all federal, state and local government web resources and services.